createdAt,value
2023-01-17T00:02:43.290Z,81.87
2023-01-17T00:11:06.705Z,81.90
2023-01-17T00:19:48.655Z,81.91
2023-01-17T00:28:12.059Z,81.90
2023-01-17T00:36:35.385Z,81.96
2023-01-17T00:45:17.340Z,82.19
2023-01-17T00:53:59.630Z,82.12
2023-01-17T01:02:42.459Z,82.02
2023-01-17T01:11:27.167Z,82.01
2023-01-17T01:20:09.076Z,82.16
2023-01-17T01:28:51.212Z,82.17
2023-01-17T01:37:14.470Z,82.16
2023-01-17T01:45:38.604Z,81.92
2023-01-17T01:54:21.264Z,82.23
2023-01-17T02:02:48.935Z,82.02
2023-01-17T02:11:12.399Z,82.13
2023-01-17T02:19:35.720Z,81.83
2023-01-17T02:28:12.762Z,82.09
2023-01-17T02:36:46.331Z,82.27
2023-01-17T02:45:16.178Z,82.13
2023-01-17T02:53:54.712Z,81.99
2023-01-17T03:02:18.537Z,82.22
2023-01-17T03:10:43.133Z,81.97
2023-01-17T03:19:06.395Z,82.02
2023-01-17T03:27:29.806Z,82.27
2023-01-17T03:35:54.799Z,82.10
2023-01-17T03:44:18.085Z,82.12
2023-01-17T03:52:41.475Z,82.16
2023-01-17T04:01:05.337Z,82.07
2023-01-17T04:09:28.644Z,82.05
2023-01-17T04:17:52.042Z,81.93
2023-01-17T04:26:15.211Z,81.97
2023-01-17T04:34:38.516Z,82.02
2023-01-17T04:43:01.763Z,81.95
2023-01-17T04:51:25.193Z,82.02
2023-01-17T04:59:48.498Z,82.09
2023-01-17T05:08:11.955Z,82.00
2023-01-17T05:16:35.489Z,81.98
2023-01-17T05:24:58.783Z,81.95
2023-01-17T05:33:22.061Z,81.97
2023-01-17T05:41:45.607Z,81.99
2023-01-17T05:50:10.152Z,81.89
2023-01-17T05:58:33.517Z,81.91
2023-01-17T06:06:56.753Z,81.84
2023-01-17T06:15:20.050Z,81.77
2023-01-17T06:23:43.369Z,81.80
2023-01-17T06:32:06.663Z,81.74
2023-01-17T06:40:30.644Z,81.80
2023-01-17T06:48:53.995Z,81.84
2023-01-17T06:57:17.214Z,81.75
2023-01-17T07:05:41.766Z,81.64
2023-01-17T07:14:05.771Z,81.44
2023-01-17T07:22:29.138Z,81.63
2023-01-17T07:30:53.039Z,81.62
2023-01-17T07:39:16.906Z,81.50
2023-01-17T07:47:41.235Z,81.63
2023-01-17T07:56:07.671Z,81.58
2023-01-17T08:04:35.516Z,81.64
2023-01-17T08:12:59.214Z,81.92
2023-01-17T08:21:23.071Z,82.08
2023-01-17T08:29:48.771Z,82.16
2023-01-17T08:38:12.001Z,81.76
2023-01-17T08:46:38.774Z,81.66
2023-01-17T08:55:02.315Z,81.56
2023-01-17T09:03:25.564Z,81.73
2023-01-17T09:11:48.839Z,81.53
2023-01-17T09:20:12.435Z,81.70
2023-01-17T09:28:41.207Z,81.54
2023-01-17T09:37:05.213Z,81.62
2023-01-17T09:45:34.077Z,81.89
2023-01-17T09:53:57.554Z,81.66
2023-01-17T10:03:15.960Z,81.81
2023-01-17T10:12:01.835Z,81.72
2023-01-17T10:20:55.822Z,81.53
2023-01-17T10:29:21.288Z,81.46
2023-01-17T10:37:46.989Z,81.52
2023-01-17T10:46:36.271Z,81.35
2023-01-17T10:55:22.439Z,81.63
2023-01-17T11:03:51.382Z,81.50
2023-01-17T11:12:35.634Z,81.36
2023-01-17T11:21:12.409Z,81.48
2023-01-17T11:29:39.300Z,81.31
2023-01-17T11:38:02.609Z,81.49
2023-01-17T11:46:28.436Z,81.52
2023-01-17T11:54:54.700Z,81.49
2023-01-17T12:03:45.038Z,81.74
2023-01-17T12:12:35.699Z,81.66
2023-01-17T12:21:14.642Z,81.28
2023-01-17T12:30:07.691Z,81.72
2023-01-17T12:38:38.992Z,81.62
2023-01-17T12:47:05.836Z,81.72
2023-01-17T12:55:58.492Z,81.83
2023-01-17T13:04:57.638Z,81.83
2023-01-17T13:13:27.290Z,81.64
2023-01-17T13:21:51.178Z,81.56
2023-01-17T13:30:22.771Z,81.53
2023-01-17T13:39:06.448Z,81.48
2023-01-17T13:47:38.924Z,81.66
2023-01-17T13:56:31.758Z,81.32
2023-01-17T14:05:24.177Z,81.40
2023-01-17T14:13:50.014Z,81.47
2023-01-17T14:22:20.359Z,81.40
2023-01-17T14:30:44.848Z,81.30
2023-01-17T14:39:22.656Z,81.22
2023-01-17T14:47:48.893Z,81.37
2023-01-17T14:56:17.634Z,81.27
2023-01-17T15:04:42.752Z,81.00
2023-01-17T15:13:10.342Z,80.93
2023-01-17T15:21:40.875Z,80.92
2023-01-17T15:30:07.049Z,80.86
2023-01-17T15:38:38.538Z,80.95
2023-01-17T15:47:03.160Z,80.82
2023-01-17T15:55:38.189Z,80.60
2023-01-17T16:04:01.508Z,80.60
2023-01-17T16:12:24.695Z,80.61
2023-01-17T16:20:53.409Z,80.80
2023-01-17T16:29:16.917Z,80.73
2023-01-17T16:37:40.235Z,80.73
2023-01-17T16:46:03.703Z,80.71
2023-01-17T16:54:27.390Z,80.72
2023-01-17T17:02:52.117Z,80.52
2023-01-17T17:11:22.913Z,80.58
2023-01-17T17:19:47.764Z,80.40
2023-01-17T17:28:11.835Z,80.57
2023-01-17T17:36:36.419Z,80.77
2023-01-17T17:44:59.629Z,80.65
2023-01-17T17:53:22.989Z,80.52
2023-01-17T18:01:47.692Z,80.70
2023-01-17T18:10:11.403Z,80.52
2023-01-17T18:18:36.933Z,80.41
2023-01-17T18:27:00.189Z,80.17
2023-01-17T18:35:23.581Z,80.39
2023-01-17T18:43:48.209Z,80.26
2023-01-17T18:52:12.333Z,80.25
2023-01-17T19:00:35.804Z,80.27
2023-01-17T19:08:59.922Z,80.37
2023-01-17T19:17:23.250Z,80.52
2023-01-17T19:25:46.743Z,80.42
2023-01-17T19:34:14.701Z,80.44
2023-01-17T19:42:38.479Z,80.54
2023-01-17T19:51:10.738Z,80.44
2023-01-17T19:59:37.978Z,80.67
2023-01-17T20:08:02.726Z,80.44
2023-01-17T20:16:29.094Z,80.64
2023-01-17T20:24:52.602Z,80.95
2023-01-17T20:33:19.128Z,80.84
2023-01-17T20:41:49.819Z,80.83
2023-01-17T20:50:13.226Z,81.06
2023-01-17T20:58:36.557Z,80.75
2023-01-17T21:06:59.921Z,80.76
2023-01-17T21:15:23.174Z,80.88
2023-01-17T21:23:46.473Z,80.78
2023-01-17T21:32:09.872Z,80.79
2023-01-17T21:40:34.260Z,80.91
2023-01-17T21:48:58.034Z,80.82
2023-01-17T21:57:42.245Z,80.83
2023-01-17T22:06:06.790Z,80.93
2023-01-17T22:14:30.564Z,80.74
2023-01-17T22:22:54.122Z,81.03
2023-01-17T22:31:23.699Z,80.98
2023-01-17T22:39:47.237Z,80.94
2023-01-17T22:48:10.981Z,80.87
2023-01-17T22:56:34.308Z,81.08
2023-01-17T23:04:57.727Z,80.96
2023-01-17T23:13:21.797Z,80.96
2023-01-17T23:22:03.691Z,81.04
2023-01-17T23:30:35.957Z,80.90
2023-01-17T23:38:59.754Z,80.95
2023-01-17T23:47:23.708Z,80.98
2023-01-17T23:55:46.994Z,81.15
